Time;durP1;ratioP1;P1;durP2;ratioP2;P2;SDS_P1;SDS_P2;PMS_P1;PMS_P2;Temp;Humidity;BMP_temperature;BMP_pressure;BME280_temperature;BME280_humidity;BME280_pressure;Samples;Min_cycle;Max_cycle;Signal;HPM_P1;HPM_P2
2022/03/30 00:00:46;;;;;;;12.15;7.10;;;;;;;;;;5053616;28;20433;-77
2022/03/30 00:03:14;;;;;;;11.48;6.60;;;;;;;;;;5057652;28;20446;-77
2022/03/30 00:05:40;;;;;;;17.90;7.25;;;;;;;;;;5055156;28;20831;-77
2022/03/30 00:08:07;;;;;;;12.10;6.20;;;;;;;;;;5053692;28;20429;-77
2022/03/30 00:10:33;;;;;;;12.07;6.83;;;;;;;;;;5055427;28;20425;-76
2022/03/30 00:13:00;;;;;;;12.98;6.60;;;;;;;;;;5052384;28;20433;-77
2022/03/30 00:15:27;;;;;;;10.98;6.20;;;;;;;;;;5052153;28;22317;-77
2022/03/30 00:17:53;;;;;;;11.57;6.30;;;;;;;;;;5056649;28;20666;-76
2022/03/30 00:20:21;;;;;;;14.97;6.70;;;;;;;;;;5055321;28;20438;-77
2022/03/30 00:22:47;;;;;;;14.10;6.87;;;;;;;;;;5043866;28;20496;-77
2022/03/30 00:25:14;;;;;;;13.63;6.70;;;;;;;;;;5042437;28;21025;-77
2022/03/30 00:27:43;;;;;;;15.63;7.47;;;;;;;;;;5056515;28;20517;-77
2022/03/30 00:30:11;;;;;;;16.45;7.55;;;;;;;;;;5050773;28;20427;-77
2022/03/30 00:32:37;;;;;;;16.35;7.60;;;;;;;;;;5048669;28;20433;-77
2022/03/30 00:35:04;;;;;;;14.63;6.97;;;;;;;;;;5053656;28;20429;-77
2022/03/30 00:37:32;;;;;;;15.80;7.88;;;;;;;;;;5052426;28;20441;-76
2022/03/30 00:39:58;;;;;;;14.82;7.30;;;;;;;;;;5052880;28;20430;-76
2022/03/30 00:42:25;;;;;;;12.82;7.05;;;;;;;;;;5054314;28;20419;-77
2022/03/30 00:44:52;;;;;;;14.90;7.55;;;;;;;;;;5054408;28;20937;-76
2022/03/30 00:47:18;;;;;;;15.32;7.55;;;;;;;;;;5054077;28;20486;-77
2022/03/30 00:49:45;;;;;;;11.55;6.43;;;;;;;;;;5053798;28;20481;-76
2022/03/30 00:52:12;;;;;;;13.30;7.10;;;;;;;;;;5055832;28;20840;-77
2022/03/30 00:54:41;;;;;;;13.85;7.00;;;;;;;;;;5052465;28;20435;-77
2022/03/30 00:57:09;;;;;;;14.90;7.20;;;;;;;;;;5053595;28;20435;-77
2022/03/30 00:59:36;;;;;;;14.63;7.22;;;;;;;;;;5049821;28;20515;-77
2022/03/30 01:02:02;;;;;;;13.45;7.10;;;;;;;;;;5053338;28;20864;-76
2022/03/30 01:04:29;;;;;;;12.35;6.97;;;;;;;;;;5051157;28;20959;-77
2022/03/30 01:06:55;;;;;;;16.27;7.40;;;;;;;;;;5057224;28;20835;-77
2022/03/30 01:09:21;;;;;;;17.67;8.67;;;;;;;;;;5050538;28;20437;-77
2022/03/30 01:11:49;;;;;;;12.88;7.18;;;;;;;;;;5052919;28;20501;-78
2022/03/30 01:14:16;;;;;;;16.67;7.07;;;;;;;;;;5053799;28;20428;-77
2022/03/30 01:16:42;;;;;;;15.05;7.25;;;;;;;;;;5054925;28;20433;-77
2022/03/30 01:19:09;;;;;;;16.47;7.33;;;;;;;;;;5053687;28;20914;-77
2022/03/30 01:21:37;;;;;;;15.98;6.70;;;;;;;;;;5052606;28;20476;-77
2022/03/30 01:24:03;;;;;;;13.77;6.95;;;;;;;;;;5053560;28;20461;-77
2022/03/30 01:26:30;;;;;;;13.90;7.30;;;;;;;;;;5053020;28;20925;-77
2022/03/30 01:28:56;;;;;;;14.45;7.13;;;;;;;;;;5047215;28;20433;-76
2022/03/30 01:34:07;;;;;;;14.50;6.70;;;;;;;;;;5052598;28;20423;-77
2022/03/30 01:36:35;;;;;;;16.25;7.57;;;;;;;;;;5053165;28;20429;-76
2022/03/30 01:39:03;;;;;;;15.80;6.80;;;;;;;;;;5053229;28;20456;-77
2022/03/30 01:41:29;;;;;;;12.77;6.60;;;;;;;;;;5056455;28;20435;-76
2022/03/30 01:43:56;;;;;;;13.10;6.90;;;;;;;;;;5051925;28;20424;-77
2022/03/30 01:46:22;;;;;;;10.98;5.50;;;;;;;;;;5052539;28;20437;-77
2022/03/30 01:48:48;;;;;;;8.13;5.17;;;;;;;;;;5051242;28;20412;-77
2022/03/30 01:51:14;;;;;;;9.77;5.38;;;;;;;;;;5056983;28;20437;-77
2022/03/30 01:53:41;;;;;;;16.42;6.60;;;;;;;;;;5057945;28;20828;-76
2022/03/30 01:56:08;;;;;;;13.13;6.15;;;;;;;;;;5057910;28;20425;-76
2022/03/30 01:58:35;;;;;;;11.45;5.63;;;;;;;;;;5057482;28;20467;-77
2022/03/30 02:01:03;;;;;;;13.23;5.87;;;;;;;;;;5054578;28;20463;-77
2022/03/30 02:03:30;;;;;;;12.23;5.50;;;;;;;;;;5054710;28;20470;-77
2022/03/30 02:05:57;;;;;;;10.70;5.63;;;;;;;;;;5059137;28;20459;-77
2022/03/30 02:08:23;;;;;;;11.02;5.88;;;;;;;;;;5055320;28;20441;-76
2022/03/30 02:10:49;;;;;;;11.00;6.00;;;;;;;;;;5059113;28;20473;-77
2022/03/30 02:13:17;;;;;;;12.02;5.78;;;;;;;;;;5058415;28;20477;-77
2022/03/30 02:15:43;;;;;;;12.32;6.10;;;;;;;;;;5056156;28;20491;-77
2022/03/30 02:18:09;;;;;;;10.27;5.30;;;;;;;;;;5055638;28;20431;-77
2022/03/30 02:20:36;;;;;;;20.30;6.28;;;;;;;;;;5055361;28;20432;-77
2022/03/30 02:23:02;;;;;;;12.25;5.63;;;;;;;;;;5055404;28;20425;-77
2022/03/30 02:25:28;;;;;;;12.70;6.00;;;;;;;;;;5057816;28;20428;-77
2022/03/30 02:27:54;;;;;;;11.93;5.72;;;;;;;;;;5057117;28;20435;-77
2022/03/30 02:30:22;;;;;;;16.92;6.82;;;;;;;;;;5051883;28;20425;-75
2022/03/30 02:32:48;;;;;;;10.88;5.82;;;;;;;;;;5056431;28;20433;-77
2022/03/30 02:35:14;;;;;;;13.02;6.25;;;;;;;;;;5058209;28;20434;-77
2022/03/30 02:37:41;;;;;;;16.00;6.90;;;;;;;;;;5055728;28;20429;-76
2022/03/30 02:40:07;;;;;;;13.68;6.60;;;;;;;;;;5053953;28;20427;-77
2022/03/30 02:42:34;;;;;;;15.98;6.22;;;;;;;;;;5054944;28;20467;-77
2022/03/30 02:45:00;;;;;;;14.05;6.43;;;;;;;;;;5054180;28;20911;-77
2022/03/30 02:50:12;;;;;;;10.90;6.30;;;;;;;;;;5050683;28;20469;-77
2022/03/30 02:52:39;;;;;;;16.17;7.60;;;;;;;;;;5057540;28;20543;-77
2022/03/30 02:55:06;;;;;;;18.02;6.93;;;;;;;;;;5055472;28;20423;-78
2022/03/30 02:57:32;;;;;;;16.65;7.05;;;;;;;;;;5056600;28;20437;-77
2022/03/30 02:59:58;;;;;;;14.85;6.30;;;;;;;;;;5054165;28;20429;-77
2022/03/30 03:02:24;;;;;;;12.93;6.80;;;;;;;;;;5056694;28;20432;-76
2022/03/30 03:04:52;;;;;;;15.52;7.00;;;;;;;;;;5055229;28;20429;-77
2022/03/30 03:07:18;;;;;;;13.00;7.65;;;;;;;;;;5054183;28;20442;-76
2022/03/30 03:09:44;;;;;;;19.20;7.83;;;;;;;;;;5054589;28;20480;-76
2022/03/30 03:12:11;;;;;;;15.95;7.53;;;;;;;;;;5054342;28;20439;-77
2022/03/30 03:14:37;;;;;;;11.75;7.45;;;;;;;;;;5052725;28;20422;-76
2022/03/30 03:17:03;;;;;;;14.80;6.35;;;;;;;;;;5055533;28;20763;-76
2022/03/30 03:19:30;;;;;;;14.67;6.80;;;;;;;;;;5051506;28;20436;-77
2022/03/30 03:21:57;;;;;;;18.52;7.13;;;;;;;;;;5054070;28;20429;-77
2022/03/30 03:24:23;;;;;;;12.95;7.13;;;;;;;;;;5056843;28;20431;-77
2022/03/30 03:26:51;;;;;;;15.57;7.70;;;;;;;;;;5058198;28;20417;-76
2022/03/30 03:29:17;;;;;;;16.45;7.05;;;;;;;;;;5052021;28;20432;-77
2022/03/30 03:31:43;;;;;;;15.15;8.07;;;;;;;;;;5052726;28;20485;-77
2022/03/30 03:34:09;;;;;;;14.70;8.38;;;;;;;;;;5056238;28;20419;-76
2022/03/30 03:36:36;;;;;;;16.08;7.50;;;;;;;;;;5053306;28;20423;-77
2022/03/30 03:39:03;;;;;;;18.85;7.03;;;;;;;;;;5054774;28;20436;-77
2022/03/30 03:41:30;;;;;;;17.17;7.47;;;;;;;;;;5055696;28;20432;-77
2022/03/30 03:43:56;;;;;;;15.65;7.10;;;;;;;;;;5056467;28;22015;-76
2022/03/30 03:46:22;;;;;;;17.60;8.10;;;;;;;;;;5058740;28;20417;-77
2022/03/30 03:48:48;;;;;;;18.42;8.18;;;;;;;;;;5052937;28;20433;-77
2022/03/30 03:51:15;;;;;;;14.00;7.50;;;;;;;;;;5054688;28;20467;-77
2022/03/30 03:53:41;;;;;;;14.27;8.15;;;;;;;;;;5053915;28;20422;-77
2022/03/30 03:56:08;;;;;;;14.38;7.28;;;;;;;;;;5055583;28;20927;-77
2022/03/30 03:58:35;;;;;;;14.02;6.80;;;;;;;;;;5054760;28;20411;-77
2022/03/30 04:01:01;;;;;;;14.40;7.13;;;;;;;;;;5048107;28;20433;-76
2022/03/30 04:03:27;;;;;;;20.35;8.55;;;;;;;;;;5054751;28;20461;-77
2022/03/30 04:08:21;;;;;;;13.30;7.93;;;;;;;;;;5023997;28;20452;-82
2022/03/30 04:10:48;;;;;;;19.25;8.52;;;;;;;;;;5029448;28;20940;-82
2022/03/30 04:13:16;;;;;;;16.80;8.02;;;;;;;;;;5032040;28;20437;-82
2022/03/30 04:15:43;;;;;;;15.23;7.82;;;;;;;;;;5027913;28;20427;-81
2022/03/30 04:18:09;;;;;;;14.25;7.57;;;;;;;;;;5049710;28;20417;-82
2022/03/30 04:20:36;;;;;;;16.92;7.72;;;;;;;;;;5049497;28;20444;-82
2022/03/30 04:23:02;;;;;;;13.77;7.63;;;;;;;;;;5049372;28;20444;-82
2022/03/30 04:25:28;;;;;;;12.50;7.93;;;;;;;;;;5051036;28;20425;-82
2022/03/30 04:27:54;;;;;;;18.77;8.20;;;;;;;;;;5048519;28;20432;-81
2022/03/30 04:30:23;;;;;;;15.35;7.90;;;;;;;;;;5045358;28;21088;-81
2022/03/30 04:32:49;;;;;;;15.10;7.50;;;;;;;;;;5046291;28;21145;-81
2022/03/30 04:35:18;;;;;;;15.95;7.65;;;;;;;;;;5047121;28;20910;-82
2022/03/30 04:37:44;;;;;;;18.95;8.50;;;;;;;;;;5045681;28;20425;-80
2022/03/30 04:40:11;;;;;;;13.32;7.90;;;;;;;;;;5046650;28;21074;-82
2022/03/30 04:42:39;;;;;;;14.90;9.13;;;;;;;;;;5050817;28;20421;-82
2022/03/30 04:45:06;;;;;;;14.95;7.80;;;;;;;;;;5045555;28;20421;-82
2022/03/30 04:47:33;;;;;;;15.50;7.65;;;;;;;;;;5047038;28;20436;-81
2022/03/30 04:50:00;;;;;;;18.13;9.20;;;;;;;;;;5048921;28;20441;-81
2022/03/30 04:52:26;;;;;;;16.48;8.93;;;;;;;;;;5049724;28;20979;-82
2022/03/30 04:54:52;;;;;;;17.00;8.30;;;;;;;;;;5045810;28;20417;-80
2022/03/30 04:57:18;;;;;;;17.55;8.88;;;;;;;;;;5044808;28;20510;-80
2022/03/30 04:59:45;;;;;;;16.85;8.95;;;;;;;;;;5048262;28;20916;-80
2022/03/30 05:02:11;;;;;;;19.20;9.00;;;;;;;;;;5045808;28;20984;-81
2022/03/30 05:04:38;;;;;;;15.43;8.52;;;;;;;;;;5046661;28;20425;-81
2022/03/30 05:07:05;;;;;;;16.73;8.33;;;;;;;;;;5049512;28;20800;-82
2022/03/30 05:09:31;;;;;;;18.15;8.63;;;;;;;;;;5050115;28;20413;-81
2022/03/30 05:11:57;;;;;;;20.33;9.03;;;;;;;;;;5045107;28;20920;-80
2022/03/30 05:14:23;;;;;;;16.48;9.15;;;;;;;;;;5042906;28;20926;-80
2022/03/30 05:16:50;;;;;;;13.98;8.70;;;;;;;;;;5048886;28;20578;-81
2022/03/30 05:19:16;;;;;;;19.45;9.13;;;;;;;;;;5047733;28;20429;-81
2022/03/30 05:21:43;;;;;;;15.95;9.07;;;;;;;;;;5049396;28;20436;-81
2022/03/30 05:24:10;;;;;;;20.58;9.10;;;;;;;;;;5049776;28;20422;-81
2022/03/30 05:26:36;;;;;;;16.58;9.00;;;;;;;;;;5053011;28;20777;-81
2022/03/30 05:29:03;;;;;;;22.60;11.13;;;;;;;;;;5047159;28;20433;-81
2022/03/30 05:31:29;;;;;;;18.75;9.70;;;;;;;;;;5051483;28;20460;-81
2022/03/30 05:33:55;;;;;;;16.10;8.80;;;;;;;;;;5051101;28;20907;-82
2022/03/30 05:36:22;;;;;;;19.00;9.20;;;;;;;;;;5050249;28;20425;-82
2022/03/30 05:38:50;;;;;;;18.00;9.50;;;;;;;;;;5048789;28;20478;-81
2022/03/30 05:41:17;;;;;;;18.00;9.25;;;;;;;;;;5053489;28;20444;-81
2022/03/30 05:43:43;;;;;;;22.45;9.82;;;;;;;;;;5051685;28;20413;-81
2022/03/30 05:46:09;;;;;;;18.38;10.32;;;;;;;;;;5051906;28;20421;-81
2022/03/30 05:48:36;;;;;;;16.17;8.80;;;;;;;;;;5049862;28;20926;-81
2022/03/30 05:51:02;;;;;;;22.00;10.07;;;;;;;;;;5052384;28;20433;-80
2022/03/30 05:53:28;;;;;;;17.43;9.27;;;;;;;;;;5054380;28;20409;-82
2022/03/30 05:55:56;;;;;;;20.13;10.30;;;;;;;;;;5051901;28;21145;-81
2022/03/30 05:58:22;;;;;;;17.70;9.75;;;;;;;;;;5052397;28;20780;-81
2022/03/30 06:00:50;;;;;;;20.38;10.75;;;;;;;;;;5050619;28;20483;-81
2022/03/30 06:03:17;;;;;;;23.55;11.38;;;;;;;;;;5052121;28;20449;-81
2022/03/30 06:05:43;;;;;;;18.50;9.93;;;;;;;;;;5052810;28;20471;-82
2022/03/30 06:08:09;;;;;;;20.73;9.50;;;;;;;;;;5050700;28;20438;-81
2022/03/30 06:10:36;;;;;;;18.88;9.70;;;;;;;;;;5054027;28;20460;-82
2022/03/30 06:13:04;;;;;;;18.77;9.07;;;;;;;;;;5052382;28;20826;-82
2022/03/30 06:15:32;;;;;;;16.17;8.15;;;;;;;;;;5051840;28;20787;-81
2022/03/30 06:17:58;;;;;;;19.45;9.05;;;;;;;;;;5050924;28;20464;-80
2022/03/30 06:20:25;;;;;;;18.45;8.63;;;;;;;;;;5050954;28;20413;-81
2022/03/30 06:22:52;;;;;;;18.65;8.93;;;;;;;;;;5050828;28;20486;-81
2022/03/30 06:25:20;;;;;;;16.38;8.63;;;;;;;;;;5050996;28;21037;-82
2022/03/30 06:27:46;;;;;;;19.70;11.40;;;;;;;;;;5050589;28;20437;-81
2022/03/30 06:30:14;;;;;;;19.23;9.63;;;;;;;;;;5050810;28;20421;-81
2022/03/30 06:32:40;;;;;;;18.77;10.32;;;;;;;;;;5051784;28;20491;-81
2022/03/30 06:35:07;;;;;;;20.75;10.55;;;;;;;;;;5049796;28;20981;-81
2022/03/30 06:37:33;;;;;;;18.15;10.00;;;;;;;;;;5050096;28;20918;-81
2022/03/30 06:39:59;;;;;;;22.33;10.80;;;;;;;;;;5049181;28;20936;-81
2022/03/30 06:42:26;;;;;;;19.13;9.88;;;;;;;;;;5050344;28;20447;-81
2022/03/30 06:44:52;;;;;;;16.42;7.78;;;;;;;;;;5048099;28;20471;-81
2022/03/30 06:47:19;;;;;;;18.27;7.93;;;;;;;;;;5050672;28;20435;-81
2022/03/30 06:49:46;;;;;;;16.73;8.02;;;;;;;;;;5053547;28;20491;-80
2022/03/30 06:52:12;;;;;;;18.95;8.00;;;;;;;;;;5054963;28;20822;-81
2022/03/30 06:54:38;;;;;;;15.55;7.43;;;;;;;;;;5055096;28;20838;-81
2022/03/30 06:57:05;;;;;;;15.68;6.90;;;;;;;;;;5054719;28;20845;-81
2022/03/30 06:59:31;;;;;;;13.00;7.05;;;;;;;;;;5055065;28;20818;-81
2022/03/30 07:01:58;;;;;;;17.45;7.25;;;;;;;;;;5050193;28;20792;-81
2022/03/30 07:04:26;;;;;;;16.52;8.25;;;;;;;;;;5055039;28;20453;-81
2022/03/30 07:12:20;;;;;;;19.63;9.50;;;;;;;;;;5053217;28;20497;-81
2022/03/30 07:14:47;;;;;;;19.40;9.90;;;;;;;;;;5052474;28;20456;-80
2022/03/30 07:17:13;;;;;;;17.85;10.27;;;;;;;;;;5054503;28;20425;-81
2022/03/30 07:19:41;;;;;;;17.38;9.48;;;;;;;;;;5045161;28;20926;-81
2022/03/30 07:22:09;;;;;;;13.82;7.50;;;;;;;;;;5050605;28;20459;-81
2022/03/30 07:24:35;;;;;;;16.48;8.98;;;;;;;;;;5054399;28;20420;-81
2022/03/30 07:27:02;;;;;;;12.80;7.45;;;;;;;;;;5054725;28;20471;-81
2022/03/30 07:29:28;;;;;;;11.13;6.00;;;;;;;;;;5050753;28;20468;-81
2022/03/30 07:31:54;;;;;;;11.70;5.82;;;;;;;;;;5053876;28;20474;-81
2022/03/30 07:34:20;;;;;;;12.13;5.75;;;;;;;;;;5054203;28;20454;-81
2022/03/30 07:36:48;;;;;;;9.80;6.18;;;;;;;;;;5053034;28;20429;-81
2022/03/30 07:39:14;;;;;;;12.43;6.72;;;;;;;;;;5053051;28;20500;-81
2022/03/30 07:41:41;;;;;;;13.40;7.28;;;;;;;;;;5054683;28;20417;-81
2022/03/30 07:44:07;;;;;;;12.55;7.05;;;;;;;;;;5053547;28;20413;-82
2022/03/30 07:46:33;;;;;;;13.80;6.40;;;;;;;;;;5055066;28;20928;-81
2022/03/30 07:49:00;;;;;;;12.25;6.07;;;;;;;;;;5052774;28;20426;-81
2022/03/30 07:51:26;;;;;;;12.63;6.63;;;;;;;;;;5055627;28;20467;-81
2022/03/30 07:53:53;;;;;;;13.05;6.18;;;;;;;;;;5052617;28;20422;-80
2022/03/30 07:56:20;;;;;;;12.88;5.57;;;;;;;;;;5053926;28;20429;-81
2022/03/30 07:58:48;;;;;;;12.48;5.57;;;;;;;;;;5053289;28;20417;-80
2022/03/30 08:01:16;;;;;;;11.98;4.90;;;;;;;;;;5054516;28;20426;-81
2022/03/30 08:03:43;;;;;;;5.72;4.00;;;;;;;;;;5052501;28;20467;-81
2022/03/30 08:06:09;;;;;;;8.70;4.50;;;;;;;;;;5053386;28;20413;-82
2022/03/30 08:08:36;;;;;;;6.90;3.90;;;;;;;;;;5053015;28;20421;-82
2022/03/30 08:11:03;;;;;;;8.52;4.35;;;;;;;;;;5054531;28;21104;-82
2022/03/30 08:13:29;;;;;;;10.20;5.55;;;;;;;;;;5053441;28;20967;-82
2022/03/30 08:15:56;;;;;;;9.60;4.82;;;;;;;;;;5054197;28;20441;-81
2022/03/30 08:18:22;;;;;;;11.60;5.72;;;;;;;;;;5050983;28;20934;-82
2022/03/30 08:23:35;;;;;;;11.02;5.78;;;;;;;;;;5053577;28;20914;-81
2022/03/30 08:26:01;;;;;;;8.95;4.57;;;;;;;;;;5052756;28;20536;-81
2022/03/30 08:28:29;;;;;;;9.30;4.95;;;;;;;;;;5051667;28;20749;-82
2022/03/30 08:30:55;;;;;;;8.43;4.90;;;;;;;;;;5050719;28;20446;-81
2022/03/30 08:33:26;;;;;;;6.80;5.10;;;;;;;;;;5049505;28;20474;-81
2022/03/30 08:35:53;;;;;;;7.53;4.05;;;;;;;;;;5051674;28;20564;-81
2022/03/30 08:38:19;;;;;;;5.60;3.88;;;;;;;;;;5050521;28;21149;-81
2022/03/30 08:40:45;;;;;;;5.60;3.97;;;;;;;;;;5054196;28;20471;-80
2022/03/30 08:43:11;;;;;;;4.85;4.07;;;;;;;;;;5052662;28;20432;-82
2022/03/30 08:45:40;;;;;;;5.50;4.50;;;;;;;;;;5050209;28;20433;-82
2022/03/30 08:48:06;;;;;;;7.20;4.85;;;;;;;;;;5051548;28;20849;-81
2022/03/30 08:50:33;;;;;;;7.70;4.80;;;;;;;;;;5052466;28;20476;-82
2022/03/30 08:53:00;;;;;;;6.43;4.15;;;;;;;;;;5052322;28;20443;-81
2022/03/30 08:55:26;;;;;;;7.75;4.75;;;;;;;;;;5051968;28;20417;-82
2022/03/30 08:57:52;;;;;;;6.47;4.20;;;;;;;;;;5051941;28;20429;-81
2022/03/30 09:00:19;;;;;;;7.30;4.50;;;;;;;;;;5051038;28;20444;-82
2022/03/30 09:02:50;;;;;;;9.30;4.68;;;;;;;;;;5053534;28;20425;-81
2022/03/30 09:05:18;;;;;;;4.80;3.75;;;;;;;;;;5052120;28;20413;-82
2022/03/30 09:07:48;;;;;;;5.03;3.55;;;;;;;;;;5052574;28;20447;-81
2022/03/30 09:10:15;;;;;;;6.20;3.90;;;;;;;;;;5050537;28;20489;-81
2022/03/30 09:12:42;;;;;;;4.47;3.83;;;;;;;;;;5052799;28;20495;-82
2022/03/30 09:15:09;;;;;;;5.00;4.60;;;;;;;;;;5052225;28;20436;-82
2022/03/30 09:17:39;;;;;;;6.00;5.05;;;;;;;;;;5053191;28;20453;-82
2022/03/30 09:20:07;;;;;;;5.40;4.90;;;;;;;;;;5050749;28;20479;-81
2022/03/30 09:22:34;;;;;;;5.85;5.25;;;;;;;;;;5053041;28;20435;-83
2022/03/30 09:25:02;;;;;;;5.90;5.40;;;;;;;;;;5053005;28;20826;-82
2022/03/30 09:27:29;;;;;;;5.40;5.00;;;;;;;;;;5051108;28;20482;-82
2022/03/30 09:29:55;;;;;;;5.65;5.15;;;;;;;;;;5049925;28;20551;-81
2022/03/30 09:32:22;;;;;;;5.50;4.97;;;;;;;;;;5052515;28;20416;-82
2022/03/30 09:34:49;;;;;;;4.20;3.90;;;;;;;;;;5051576;28;20417;-82
2022/03/30 09:37:17;;;;;;;4.20;3.80;;;;;;;;;;5051558;28;20429;-82
2022/03/30 09:39:43;;;;;;;4.47;4.07;;;;;;;;;;5051470;28;20483;-82
2022/03/30 09:42:11;;;;;;;4.40;4.00;;;;;;;;;;5051485;28;20437;-82
2022/03/30 09:44:45;;;;;;;4.80;4.40;;;;;;;;;;5052531;28;20878;-82
2022/03/30 09:47:11;;;;;;;4.57;4.17;;;;;;;;;;5053362;28;20458;-82
2022/03/30 09:49:38;;;;;;;4.93;4.53;;;;;;;;;;5050557;28;20969;-82
2022/03/30 09:52:12;;;;;;;4.90;4.50;;;;;;;;;;5051555;28;20417;-82
2022/03/30 09:54:41;;;;;;;4.70;4.30;;;;;;;;;;5051758;28;20455;-83
2022/03/30 09:57:11;;;;;;;4.20;3.90;;;;;;;;;;5051086;28;20429;-82
2022/03/30 09:59:56;;;;;;;4.10;3.70;;;;;;;;;;5051318;28;20436;-81
2022/03/30 10:02:23;;;;;;;4.47;4.07;;;;;;;;;;5052598;28;20411;-82
2022/03/30 10:04:50;;;;;;;3.90;3.60;;;;;;;;;;5046578;28;20475;-82
2022/03/30 10:09:46;;;;;;;4.05;3.67;;;;;;;;;;4998113;28;20454;-80
2022/03/30 10:12:16;;;;;;;3.80;3.50;;;;;;;;;;5004760;28;20432;-82
2022/03/30 10:14:43;;;;;;;3.85;3.55;;;;;;;;;;5004834;28;20980;-82
2022/03/30 10:17:09;;;;;;;4.20;3.60;;;;;;;;;;5002513;28;20430;-82
2022/03/30 10:19:35;;;;;;;4.40;4.00;;;;;;;;;;5005519;28;20826;-83
2022/03/30 10:22:06;;;;;;;4.20;3.90;;;;;;;;;;5003650;28;20433;-82
2022/03/30 10:24:43;;;;;;;4.05;3.75;;;;;;;;;;5005585;28;20430;-82
2022/03/30 10:27:13;;;;;;;4.40;4.00;;;;;;;;;;5006087;28;20421;-81
2022/03/30 10:29:47;;;;;;;4.10;3.72;;;;;;;;;;5004318;28;20428;-82
2022/03/30 10:32:15;;;;;;;4.50;4.10;;;;;;;;;;5005736;28;20473;-82
2022/03/30 10:34:42;;;;;;;4.63;4.22;;;;;;;;;;5005859;28;20420;-82
2022/03/30 10:37:10;;;;;;;4.18;3.88;;;;;;;;;;5004925;28;20509;-82
2022/03/30 10:39:53;;;;;;;4.60;4.20;;;;;;;;;;5003366;28;20456;-83
2022/03/30 10:42:21;;;;;;;4.53;4.13;;;;;;;;;;5005554;28;20543;-81
2022/03/30 10:44:49;;;;;;;4.38;3.97;;;;;;;;;;5004761;28;20436;-83
2022/03/30 10:47:16;;;;;;;4.45;4.05;;;;;;;;;;5005150;28;20951;-82
2022/03/30 10:49:44;;;;;;;5.10;4.70;;;;;;;;;;5001632;28;20421;-82
2022/03/30 10:52:31;;;;;;;5.32;4.57;;;;;;;;;;5002214;28;20430;-83
2022/03/30 10:55:16;;;;;;;4.40;4.00;;;;;;;;;;5003409;28;20418;-83
2022/03/30 10:57:49;;;;;;;4.30;3.90;;;;;;;;;;5004212;28;20440;-82
2022/03/30 11:00:17;;;;;;;4.40;4.00;;;;;;;;;;5002183;28;20549;-82
2022/03/30 11:02:43;;;;;;;4.95;4.55;;;;;;;;;;5004599;28;20417;-83
2022/03/30 11:05:10;;;;;;;4.55;4.15;;;;;;;;;;5002828;28;20427;-80
2022/03/30 11:07:37;;;;;;;5.07;4.60;;;;;;;;;;5003913;28;20448;-83
2022/03/30 11:10:31;;;;;;;4.95;4.50;;;;;;;;;;5003056;28;20961;-82
2022/03/30 11:13:11;;;;;;;5.00;4.50;;;;;;;;;;5002816;28;20520;-82
2022/03/30 11:15:56;;;;;;;4.50;4.10;;;;;;;;;;5006572;28;20426;-82
2022/03/30 11:18:22;;;;;;;4.80;4.30;;;;;;;;;;5005345;28;20506;-82
2022/03/30 11:21:07;;;;;;;5.00;4.50;;;;;;;;;;5005481;28;20838;-82
2022/03/30 11:23:34;;;;;;;5.20;4.70;;;;;;;;;;5004665;28;20422;-82
2022/03/30 11:26:00;;;;;;;5.55;5.05;;;;;;;;;;5005705;28;20492;-82
2022/03/30 11:28:36;;;;;;;4.80;4.40;;;;;;;;;;5005241;28;20424;-82
2022/03/30 11:31:05;;;;;;;5.93;5.32;;;;;;;;;;5004019;28;20465;-82
2022/03/30 11:33:34;;;;;;;5.10;4.60;;;;;;;;;;5004256;28;20477;-83
2022/03/30 11:36:02;;;;;;;5.70;5.10;;;;;;;;;;5005804;28;20503;-82
2022/03/30 11:38:37;;;;;;;5.60;5.00;;;;;;;;;;5003679;28;21480;-83
2022/03/30 11:41:06;;;;;;;5.70;5.10;;;;;;;;;;5004037;28;20424;-82
2022/03/30 11:45:12;;;;;;;5.40;4.90;;;;;;;;;;5003740;28;20482;-83
2022/03/30 11:46:24;;;;;;;5.00;4.50;;;;;;;;;;5005794;28;20404;-82
2022/03/30 11:48:50;;;;;;;6.10;5.50;;;;;;;;;;5002758;28;20459;-82
2022/03/30 11:51:17;;;;;;;4.93;4.43;;;;;;;;;;5004324;28;20915;-82
2022/03/30 11:53:43;;;;;;;4.40;4.00;;;;;;;;;;5003102;28;20471;-82
2022/03/30 11:56:10;;;;;;;4.93;4.53;;;;;;;;;;5005167;28;20979;-83
2022/03/30 11:58:37;;;;;;;5.20;4.70;;;;;;;;;;5002659;28;20413;-83
2022/03/30 12:01:06;;;;;;;4.63;4.22;;;;;;;;;;5003883;28;20436;-82
2022/03/30 12:03:34;;;;;;;4.78;4.38;;;;;;;;;;5002985;28;20423;-82
2022/03/30 12:06:01;;;;;;;5.40;4.90;;;;;;;;;;5003111;28;20429;-82
2022/03/30 12:08:28;;;;;;;5.55;5.05;;;;;;;;;;5002374;28;20427;-82
2022/03/30 12:10:57;;;;;;;5.20;4.70;;;;;;;;;;5003131;28;20451;-82
2022/03/30 12:13:24;;;;;;;5.35;4.43;;;;;;;;;;5003119;28;20862;-82
2022/03/30 12:16:00;;;;;;;5.17;4.70;;;;;;;;;;5002872;28;20418;-82
2022/03/30 12:18:27;;;;;;;4.85;4.45;;;;;;;;;;5003508;28;20443;-83
2022/03/30 12:20:54;;;;;;;6.78;4.60;;;;;;;;;;5003286;28;20423;-82
2022/03/30 12:23:21;;;;;;;6.28;4.90;;;;;;;;;;5003950;28;20417;-83
2022/03/30 12:25:48;;;;;;;4.80;4.28;;;;;;;;;;5003872;28;20480;-82
2022/03/30 12:28:18;;;;;;;5.90;5.30;;;;;;;;;;5003431;28;20464;-83
2022/03/30 12:30:44;;;;;;;5.97;4.82;;;;;;;;;;5004167;28;20436;-81
2022/03/30 12:33:10;;;;;;;4.30;3.90;;;;;;;;;;5004548;28;20438;-83
2022/03/30 12:35:38;;;;;;;4.70;4.28;;;;;;;;;;5005630;28;20424;-82
2022/03/30 12:38:07;;;;;;;5.07;4.65;;;;;;;;;;5004051;28;20506;-82
2022/03/30 12:40:35;;;;;;;4.38;3.88;;;;;;;;;;5004430;28;21006;-82
2022/03/30 12:43:01;;;;;;;3.40;3.10;;;;;;;;;;5004109;28;20922;-83
2022/03/30 12:45:27;;;;;;;3.13;2.92;;;;;;;;;;4986116;28;20520;-83
2022/03/30 12:47:59;;;;;;;3.17;2.88;;;;;;;;;;4984270;28;20434;-83
2022/03/30 12:50:29;;;;;;;4.20;3.35;;;;;;;;;;5001821;28;20585;-82
2022/03/30 12:53:02;;;;;;;4.60;3.20;;;;;;;;;;5004402;28;20433;-83
2022/03/30 12:55:32;;;;;;;3.30;3.00;;;;;;;;;;4984673;28;20469;-82
2022/03/30 12:57:59;;;;;;;4.50;3.25;;;;;;;;;;4983530;28;20430;-81
2022/03/30 13:00:28;;;;;;;4.20;3.10;;;;;;;;;;4981788;28;20422;-82
2022/03/30 13:03:09;;;;;;;3.90;3.40;;;;;;;;;;4983964;28;20434;-82
2022/03/30 13:05:36;;;;;;;3.53;2.88;;;;;;;;;;4982983;28;20420;-82
2022/03/30 13:08:08;;;;;;;3.00;2.70;;;;;;;;;;4982380;28;20507;-83
2022/03/30 13:10:47;;;;;;;4.38;2.67;;;;;;;;;;4983409;28;20435;-82
2022/03/30 13:13:15;;;;;;;3.88;3.00;;;;;;;;;;4981017;28;20980;-83
2022/03/30 13:15:42;;;;;;;3.65;3.17;;;;;;;;;;4980443;28;20422;-82
2022/03/30 13:18:10;;;;;;;4.97;3.30;;;;;;;;;;4982509;28;20494;-82
2022/03/30 13:20:36;;;;;;;4.05;3.60;;;;;;;;;;4980407;28;20418;-83
2022/03/30 13:23:04;;;;;;;4.93;3.92;;;;;;;;;;4983065;28;20930;-83
2022/03/30 13:25:32;;;;;;;3.80;3.30;;;;;;;;;;4983084;28;20452;-82
2022/03/30 13:28:00;;;;;;;5.35;3.72;;;;;;;;;;4983641;28;20426;-81
2022/03/30 13:30:28;;;;;;;3.75;3.45;;;;;;;;;;4979192;28;20917;-82
2022/03/30 13:32:54;;;;;;;5.55;3.80;;;;;;;;;;4983206;28;21014;-83
2022/03/30 13:35:20;;;;;;;4.63;4.20;;;;;;;;;;4979286;28;20851;-83
2022/03/30 13:37:46;;;;;;;5.10;4.60;;;;;;;;;;4983293;28;20490;-82
2022/03/30 13:40:12;;;;;;;5.22;4.07;;;;;;;;;;4981754;28;20426;-82
2022/03/30 13:42:39;;;;;;;5.53;4.20;;;;;;;;;;4982125;28;20414;-82
2022/03/30 13:45:07;;;;;;;6.60;5.60;;;;;;;;;;4983941;28;20429;-83
2022/03/30 13:47:33;;;;;;;6.43;5.22;;;;;;;;;;4986058;28;20426;-82
2022/03/30 13:50:02;;;;;;;6.63;5.60;;;;;;;;;;4985819;28;20865;-84
2022/03/30 13:52:28;;;;;;;7.07;5.90;;;;;;;;;;4986787;28;21017;-82
2022/03/30 13:54:54;;;;;;;8.02;6.32;;;;;;;;;;4985205;28;20426;-82
2022/03/30 13:57:21;;;;;;;7.60;5.88;;;;;;;;;;4987066;28;20431;-83
2022/03/30 13:59:47;;;;;;;8.23;6.57;;;;;;;;;;4984764;28;20437;-83
2022/03/30 14:02:14;;;;;;;9.02;7.18;;;;;;;;;;4987560;28;20436;-82
2022/03/30 14:04:41;;;;;;;9.57;6.97;;;;;;;;;;4984381;28;20464;-82
2022/03/30 14:07:07;;;;;;;8.82;7.20;;;;;;;;;;4985321;28;20420;-82
2022/03/30 14:09:34;;;;;;;8.43;6.97;;;;;;;;;;4985244;28;20909;-82
2022/03/30 14:12:01;;;;;;;7.85;6.07;;;;;;;;;;4985847;28;20533;-83
2022/03/30 14:14:28;;;;;;;8.37;6.00;;;;;;;;;;4986007;28;20431;-83
2022/03/30 14:16:54;;;;;;;8.23;5.93;;;;;;;;;;4985294;28;20445;-83
2022/03/30 14:19:23;;;;;;;9.00;7.07;;;;;;;;;;4985612;28;20791;-82
2022/03/30 14:21:49;;;;;;;10.43;7.47;;;;;;;;;;4983967;28;20892;-82
2022/03/30 14:24:15;;;;;;;10.13;7.57;;;;;;;;;;4984955;28;20854;-83
2022/03/30 14:26:41;;;;;;;9.27;7.70;;;;;;;;;;4984638;28;20474;-81
2022/03/30 14:29:07;;;;;;;8.60;7.30;;;;;;;;;;4984051;28;20427;-83
2022/03/30 14:31:34;;;;;;;10.27;7.60;;;;;;;;;;4986249;28;20484;-83
2022/03/30 14:34:00;;;;;;;10.52;8.20;;;;;;;;;;4985688;28;20435;-83
2022/03/30 14:36:28;;;;;;;10.60;7.75;;;;;;;;;;4985613;28;20438;-83
2022/03/30 14:38:54;;;;;;;7.10;5.90;;;;;;;;;;4982125;28;20434;-83
2022/03/30 14:41:20;;;;;;;7.82;6.72;;;;;;;;;;4984764;28;20426;-83
2022/03/30 14:43:47;;;;;;;7.22;5.93;;;;;;;;;;4983973;28;20426;-83
2022/03/30 14:46:13;;;;;;;8.68;5.90;;;;;;;;;;4984595;28;20498;-83
2022/03/30 14:48:39;;;;;;;8.32;6.25;;;;;;;;;;4980946;28;20459;-81
2022/03/30 14:51:07;;;;;;;6.20;5.47;;;;;;;;;;4984527;28;20504;-83
2022/03/30 14:53:36;;;;;;;8.10;6.30;;;;;;;;;;4984466;28;20420;-82
2022/03/30 14:56:03;;;;;;;6.45;5.80;;;;;;;;;;4982961;28;20426;-83